createdAt,value
2022-08-22T00:03:01.248Z,23.60
2022-08-22T00:07:22.983Z,18.00
2022-08-22T00:11:30.004Z,17.90
2022-08-22T00:15:43.048Z,17.80
2022-08-22T00:19:50.816Z,17.70
2022-08-22T00:23:55.669Z,17.60
2022-08-22T00:28:00.561Z,17.60
2022-08-22T00:32:07.755Z,17.50
2022-08-22T00:36:22.673Z,17.40
2022-08-22T00:40:30.776Z,17.30
2022-08-22T00:44:41.984Z,17.20
2022-08-22T00:48:54.750Z,17.20
2022-08-22T00:53:16.403Z,17.10
2022-08-22T01:01:31.165Z,16.90
2022-08-22T01:05:43.734Z,16.80
2022-08-22T01:09:52.958Z,16.70
2022-08-22T01:14:03.591Z,16.70
2022-08-22T01:18:30.182Z,16.60
2022-08-22T01:22:46.291Z,16.50
2022-08-22T01:27:13.006Z,16.50
2022-08-22T01:31:30.846Z,16.40
2022-08-22T01:35:48.543Z,16.40
2022-08-22T01:40:03.759Z,16.40
2022-08-22T01:44:16.675Z,16.30
2022-08-22T01:48:21.666Z,16.30
2022-08-22T01:52:31.733Z,16.20
2022-08-22T01:56:40.061Z,16.10
2022-08-22T02:00:55.198Z,16.10
2022-08-22T02:05:03.061Z,16.10
2022-08-22T02:09:09.267Z,16.00
2022-08-22T02:13:23.225Z,15.90
2022-08-22T02:17:27.680Z,15.90
2022-08-22T02:21:33.534Z,15.80
2022-08-22T02:25:48.167Z,15.80
2022-08-22T02:33:57.131Z,15.70
2022-08-22T02:38:06.908Z,15.70
2022-08-22T02:42:15.926Z,15.60
2022-08-22T02:46:24.077Z,15.50
2022-08-22T02:50:32.065Z,15.50
2022-08-22T02:54:38.025Z,15.40
2022-08-22T02:58:45.671Z,15.40
2022-08-22T03:03:00.256Z,15.40
2022-08-22T03:07:15.791Z,15.30
2022-08-22T03:11:20.758Z,15.30
2022-08-22T03:15:26.403Z,15.30
2022-08-22T03:19:31.563Z,15.30
2022-08-22T03:23:40.103Z,15.20
2022-08-22T03:27:47.187Z,15.20
2022-08-22T03:32:07.419Z,15.10
2022-08-22T03:36:12.763Z,15.00
2022-08-22T03:40:31.788Z,15.00
2022-08-22T03:44:50.806Z,14.90
2022-08-22T03:49:23.098Z,14.90
2022-08-22T03:53:42.289Z,14.80
2022-08-22T03:58:07.592Z,14.80
2022-08-22T04:02:42.845Z,14.70
2022-08-22T04:07:00.140Z,14.70
2022-08-22T04:11:14.418Z,14.60
2022-08-22T04:15:28.138Z,14.60
2022-08-22T04:19:47.890Z,14.60
2022-08-22T04:24:08.152Z,14.60
2022-08-22T04:28:12.663Z,14.60
2022-08-22T04:32:20.803Z,14.60
2022-08-22T04:36:26.807Z,14.50
2022-08-22T04:40:32.274Z,14.50
2022-08-22T04:44:37.787Z,14.50
2022-08-22T04:48:43.773Z,14.50
2022-08-22T04:52:59.454Z,14.40
2022-08-22T04:57:12.197Z,14.40
2022-08-22T05:01:16.853Z,14.40
2022-08-22T05:05:23.066Z,14.40
2022-08-22T05:09:27.905Z,14.40
2022-08-22T05:13:33.262Z,14.40
2022-08-22T05:17:36.283Z,14.40
2022-08-22T05:21:41.954Z,14.50
2022-08-22T05:25:45.333Z,14.50
2022-08-22T05:29:49.766Z,14.50
2022-08-22T05:33:55.859Z,14.60
2022-08-22T05:38:00.790Z,14.70
2022-08-22T05:42:04.644Z,14.70
2022-08-22T05:46:09.874Z,14.80
2022-08-22T05:50:14.506Z,14.90
2022-08-22T05:54:20.149Z,14.90
2022-08-22T05:58:45.940Z,15.00
2022-08-22T06:02:53.589Z,15.10
2022-08-22T06:06:57.406Z,15.20
2022-08-22T06:11:04.398Z,15.30
2022-08-22T06:15:12.587Z,15.40
2022-08-22T06:19:19.539Z,15.50
2022-08-22T06:23:25.933Z,15.60
2022-08-22T06:27:31.280Z,15.70
2022-08-22T06:31:36.675Z,15.70
2022-08-22T06:35:59.647Z,15.80
2022-08-22T06:40:04.197Z,15.90
2022-08-22T06:44:08.890Z,16.00
2022-08-22T06:48:14.401Z,16.20
2022-08-22T06:52:19.763Z,16.30
2022-08-22T06:56:24.355Z,16.40
2022-08-22T07:00:29.335Z,16.50
2022-08-22T07:04:32.418Z,16.70
2022-08-22T07:08:38.983Z,16.80
2022-08-22T07:12:45.410Z,17.00
2022-08-22T07:16:55.175Z,17.20
2022-08-22T07:20:59.256Z,17.30
2022-08-22T07:25:05.924Z,17.50
2022-08-22T07:29:12.889Z,17.70
2022-08-22T07:37:33.700Z,18.20
2022-08-22T07:41:45.463Z,18.40
2022-08-22T07:45:49.788Z,18.70
2022-08-22T07:49:55.459Z,18.90
2022-08-22T07:54:01.092Z,19.20
2022-08-22T07:58:05.823Z,19.40
2022-08-22T08:02:11.830Z,19.60
2022-08-22T08:06:14.854Z,20.10
2022-08-22T08:10:23.989Z,20.40
2022-08-22T08:14:27.441Z,20.50
2022-08-22T08:18:33.910Z,20.80
2022-08-22T08:22:38.560Z,21.10
2022-08-22T08:27:04.263Z,21.40
2022-08-22T08:31:09.369Z,21.70
2022-08-22T08:35:19.858Z,22.10
2022-08-22T08:39:25.887Z,22.40
2022-08-22T08:43:47.916Z,22.80
2022-08-22T08:48:01.214Z,23.00
2022-08-22T08:52:16.574Z,23.20
2022-08-22T08:56:26.288Z,23.50
2022-08-22T09:00:49.053Z,23.70
2022-08-22T09:05:10.406Z,23.90
2022-08-22T09:09:24.450Z,24.30
2022-08-22T09:13:41.621Z,24.40
2022-08-22T09:38:34.723Z,26.30
2022-08-22T09:40:16.672Z,26.20
2022-08-22T09:42:44.946Z,26.70
2022-08-22T09:46:58.858Z,27.00
2022-08-22T09:51:31.965Z,27.30
2022-08-22T09:55:39.334Z,27.60
2022-08-22T09:59:51.571Z,27.90
2022-08-22T10:04:12.846Z,28.10
2022-08-22T10:08:20.947Z,28.30
2022-08-22T10:12:35.833Z,28.40
2022-08-22T10:16:54.343Z,28.60
2022-08-22T10:21:02.709Z,28.70
2022-08-22T10:25:14.820Z,28.80
2022-08-22T10:29:34.900Z,28.80
2022-08-22T10:33:40.298Z,28.80
2022-08-22T10:37:50.377Z,28.90
2022-08-22T10:42:03.195Z,29.10
2022-08-22T10:46:12.527Z,29.30
2022-08-22T10:50:18.660Z,29.50
2022-08-22T10:54:37.943Z,29.70
2022-08-22T10:58:48.088Z,29.90
2022-08-22T11:02:55.185Z,30.00
2022-08-22T11:07:09.363Z,30.20
2022-08-22T11:11:18.117Z,30.40
2022-08-22T11:15:42.566Z,30.50
2022-08-22T11:19:50.407Z,30.60
2022-08-22T11:24:00.574Z,30.70
2022-08-22T11:28:22.208Z,31.00
2022-08-22T11:32:33.620Z,31.20
2022-08-22T11:36:38.102Z,31.50
2022-08-22T11:40:43.874Z,31.60
2022-08-22T11:44:51.210Z,31.70
2022-08-22T11:49:01.355Z,31.90
2022-08-22T11:53:14.418Z,32.10
2022-08-22T11:57:18.805Z,32.20
2022-08-22T12:01:25.537Z,32.40
2022-08-22T12:05:50.563Z,32.60
2022-08-22T12:09:56.117Z,32.80
2022-08-22T12:14:06.402Z,32.90
2022-08-22T12:18:26.695Z,33.00
2022-08-22T12:22:49.976Z,33.10
2022-08-22T12:27:07.924Z,33.10
2022-08-22T12:31:15.338Z,33.10
2022-08-22T12:35:29.956Z,33.10
2022-08-22T12:40:03.376Z,33.20
2022-08-22T12:44:21.154Z,33.30
2022-08-22T12:48:37.615Z,33.50
2022-08-22T12:52:51.612Z,33.70
2022-08-22T12:56:58.679Z,33.80
2022-08-22T13:01:03.505Z,33.80
2022-08-22T13:05:13.787Z,33.70
2022-08-22T13:09:28.988Z,33.50
2022-08-22T13:13:37.313Z,33.40
2022-08-22T13:17:44.337Z,33.20
2022-08-22T13:21:52.939Z,32.90
2022-08-22T13:26:07.671Z,32.70
2022-08-22T13:30:13.457Z,32.50
2022-08-22T13:34:28.235Z,32.30
2022-08-22T13:38:34.790Z,32.10
2022-08-22T13:42:47.828Z,31.80
2022-08-22T13:47:13.123Z,31.60
2022-08-22T13:51:17.348Z,31.60
2022-08-22T13:55:29.389Z,31.50
2022-08-22T13:59:50.297Z,31.40
2022-08-22T14:03:57.000Z,31.30
2022-08-22T14:08:13.031Z,31.30
2022-08-22T14:12:19.607Z,31.20
2022-08-22T14:16:24.331Z,31.20
2022-08-22T14:20:33.601Z,31.30
2022-08-22T14:24:45.573Z,31.40
2022-08-22T14:28:50.422Z,31.50
2022-08-22T14:32:54.555Z,31.50
2022-08-22T14:37:00.555Z,31.60
2022-08-22T14:41:05.407Z,31.70
2022-08-22T14:45:13.635Z,31.80
2022-08-22T14:49:38.342Z,31.90
2022-08-22T14:53:41.517Z,32.10
2022-08-22T14:57:46.905Z,32.20
2022-08-22T15:01:56.864Z,32.40
2022-08-22T15:06:01.359Z,32.50
2022-08-22T15:10:06.519Z,32.60
2022-08-22T15:14:12.633Z,32.80
2022-08-22T15:18:19.587Z,32.90
2022-08-22T15:22:25.939Z,33.00
2022-08-22T15:26:32.884Z,33.10
2022-08-22T15:30:38.239Z,33.00
2022-08-22T15:34:52.401Z,32.90
2022-08-22T15:38:56.214Z,32.70
2022-08-22T15:42:59.470Z,32.50
2022-08-22T15:47:05.797Z,32.40
2022-08-22T15:51:32.251Z,32.20
2022-08-22T15:55:35.805Z,32.00
2022-08-22T15:59:54.151Z,31.80
2022-08-22T16:03:59.703Z,31.60
2022-08-22T16:08:05.789Z,31.50
2022-08-22T16:12:10.480Z,31.40
2022-08-22T16:16:34.190Z,31.30
2022-08-22T16:21:10.282Z,31.20
2022-08-22T16:25:17.066Z,31.20
2022-08-22T16:29:37.721Z,31.50
2022-08-22T16:33:44.979Z,31.70
2022-08-22T16:37:50.136Z,32.00
2022-08-22T16:41:55.366Z,32.30
2022-08-22T16:45:58.850Z,32.40
2022-08-22T16:50:05.140Z,32.50
2022-08-22T16:54:09.825Z,32.60
2022-08-22T16:58:44.913Z,32.60
2022-08-22T17:03:00.275Z,32.50
2022-08-22T17:07:14.293Z,32.30
2022-08-22T17:11:24.455Z,32.10
2022-08-22T17:15:31.615Z,31.90
2022-08-22T17:19:44.039Z,31.60
2022-08-22T17:23:57.635Z,31.40
2022-08-22T17:28:11.560Z,31.10
2022-08-22T17:32:18.705Z,30.90
2022-08-22T17:36:28.174Z,30.60
2022-08-22T17:40:34.446Z,30.40
2022-08-22T17:44:42.515Z,30.20
2022-08-22T17:48:48.125Z,30.00
2022-08-22T17:52:56.020Z,29.70
2022-08-22T17:57:06.027Z,29.50
2022-08-22T18:01:13.539Z,29.30
2022-08-22T18:05:19.297Z,29.20
2022-08-22T18:09:27.292Z,29.00
2022-08-22T18:13:36.600Z,28.80
2022-08-22T18:17:41.836Z,28.70
2022-08-22T18:21:49.325Z,28.50
2022-08-22T18:26:03.047Z,28.30
2022-08-22T18:30:08.436Z,28.20
2022-08-22T18:34:17.139Z,28.10
2022-08-22T18:38:24.186Z,27.90
2022-08-22T18:42:31.366Z,27.80
2022-08-22T18:46:41.367Z,27.70
2022-08-22T18:50:44.396Z,27.50
2022-08-22T18:54:57.866Z,27.40
2022-08-22T18:59:07.617Z,27.30
2022-08-22T19:03:16.403Z,27.20
2022-08-22T19:07:48.624Z,27.10
2022-08-22T19:12:01.852Z,27.00
2022-08-22T19:16:14.445Z,26.90
2022-08-22T19:20:41.015Z,26.80
2022-08-22T19:24:58.750Z,26.60
2022-08-22T19:29:02.651Z,26.60
2022-08-22T19:33:07.893Z,26.40
2022-08-22T19:37:32.015Z,26.30
2022-08-22T19:41:42.381Z,26.30
2022-08-22T19:45:45.394Z,26.20
2022-08-22T19:49:58.410Z,26.10
2022-08-22T19:54:16.739Z,26.00
2022-08-22T19:58:31.701Z,25.90
2022-08-22T20:02:40.257Z,25.90
2022-08-22T20:06:51.729Z,25.80
2022-08-22T20:10:59.671Z,25.70
2022-08-22T20:15:11.618Z,25.60
2022-08-22T20:19:18.196Z,25.60
2022-08-22T20:23:25.942Z,25.50
2022-08-22T20:27:31.454Z,25.40
2022-08-22T20:31:35.384Z,25.40
2022-08-22T20:35:42.694Z,25.40
2022-08-22T20:39:58.688Z,25.30
2022-08-22T20:44:03.803Z,25.30
2022-08-22T20:48:09.795Z,25.20
2022-08-22T20:52:21.707Z,25.10
2022-08-22T20:56:37.722Z,25.10
2022-08-22T21:00:50.857Z,25.00
2022-08-22T21:05:03.779Z,25.00
2022-08-22T21:09:31.797Z,25.00
2022-08-22T21:13:37.589Z,24.90
2022-08-22T21:17:40.436Z,24.90
2022-08-22T21:21:43.261Z,24.90
2022-08-22T21:25:54.569Z,24.80
2022-08-22T21:30:01.705Z,24.80
2022-08-22T21:34:05.883Z,24.80
2022-08-22T21:38:17.783Z,24.70
2022-08-22T21:42:23.923Z,24.60
2022-08-22T21:46:29.699Z,24.60
2022-08-22T21:50:38.015Z,24.60
2022-08-22T21:54:41.034Z,24.50
2022-08-22T21:58:46.581Z,24.50
2022-08-22T22:02:51.162Z,24.40
2022-08-22T22:06:53.972Z,24.40
2022-08-22T22:10:58.294Z,24.40
2022-08-22T22:15:01.136Z,24.40
2022-08-22T22:19:07.452Z,24.30
2022-08-22T22:23:10.749Z,24.30
2022-08-22T22:27:16.934Z,24.30
2022-08-22T22:31:20.317Z,24.30
2022-08-22T22:35:24.662Z,24.30
2022-08-22T22:39:27.922Z,24.20
2022-08-22T22:43:30.723Z,24.20
2022-08-22T22:47:35.715Z,24.20
2022-08-22T22:51:39.867Z,24.10
2022-08-22T22:55:42.728Z,24.10
2022-08-22T22:59:47.040Z,24.00
2022-08-22T23:03:54.388Z,24.00
2022-08-22T23:07:58.753Z,24.00
2022-08-22T23:12:02.979Z,23.90
2022-08-22T23:16:07.600Z,23.80
2022-08-22T23:20:11.455Z,23.70
2022-08-22T23:24:15.649Z,23.60
2022-08-22T23:28:18.443Z,23.50
2022-08-22T23:32:21.256Z,23.40
2022-08-22T23:36:25.686Z,23.40
2022-08-22T23:40:31.819Z,23.40
2022-08-22T23:44:38.350Z,23.40
2022-08-22T23:48:41.667Z,23.40
2022-08-22T23:52:44.547Z,23.40
2022-08-22T23:56:49.611Z,23.40
